sensor_id;sensor_type;location;lat;lon;timestamp;pressure;altitude;pressure_sealevel;temperature;humidity
6020;BME280;3038;51.122;6.840;2023-03-24T00:01:12;99834.91;;;12.72;81.42
6020;BME280;3038;51.122;6.840;2023-03-24T00:03:39;99840.84;;;12.74;81.15
6020;BME280;3038;51.122;6.840;2023-03-24T00:06:05;99841.66;;;12.75;81.33
6020;BME280;3038;51.122;6.840;2023-03-24T00:08:34;99839.88;;;12.82;80.63
6020;BME280;3038;51.122;6.840;2023-03-24T00:11:02;99833.97;;;12.86;81.07
6020;BME280;3038;51.122;6.840;2023-03-24T00:13:29;99838.88;;;12.90;80.46
6020;BME280;3038;51.122;6.840;2023-03-24T00:15:56;99828.88;;;12.92;80.49
6020;BME280;3038;51.122;6.840;2023-03-24T00:18:22;99827.84;;;12.93;80.26
6020;BME280;3038;51.122;6.840;2023-03-24T00:20:51;99816.59;;;12.97;80.27
6020;BME280;3038;51.122;6.840;2023-03-24T00:23:26;99805.13;;;12.97;79.81
6020;BME280;3038;51.122;6.840;2023-03-24T00:26:02;99792.78;;;12.96;80.37
6020;BME280;3038;51.122;6.840;2023-03-24T00:28:30;99799.78;;;12.97;80.31
6020;BME280;3038;51.122;6.840;2023-03-24T00:30:57;99792.63;;;12.97;80.77
6020;BME280;3038;51.122;6.840;2023-03-24T00:33:23;99787.06;;;12.99;79.95
6020;BME280;3038;51.122;6.840;2023-03-24T00:35:49;99784.41;;;12.99;80.21
6020;BME280;3038;51.122;6.840;2023-03-24T00:38:15;99792.41;;;12.99;79.88
6020;BME280;3038;51.122;6.840;2023-03-24T00:40:44;99787.50;;;13.02;80.68
6020;BME280;3038;51.122;6.840;2023-03-24T00:43:10;99770.06;;;13.00;80.15
6020;BME280;3038;51.122;6.840;2023-03-24T00:45:37;99770.88;;;12.94;80.86
6020;BME280;3038;51.122;6.840;2023-03-24T00:48:10;99770.03;;;12.86;81.39
6020;BME280;3038;51.122;6.840;2023-03-24T00:50:35;99765.69;;;12.85;81.56
6020;BME280;3038;51.122;6.840;2023-03-24T00:53:01;99766.13;;;12.89;81.64
6020;BME280;3038;51.122;6.840;2023-03-24T00:55:26;99761.84;;;12.88;81.79
6020;BME280;3038;51.122;6.840;2023-03-24T00:57:52;99761.19;;;12.86;81.97
6020;BME280;3038;51.122;6.840;2023-03-24T01:00:24;99752.59;;;12.84;82.31
6020;BME280;3038;51.122;6.840;2023-03-24T01:02:52;99745.19;;;12.86;82.21
6020;BME280;3038;51.122;6.840;2023-03-24T01:05:27;99748.31;;;12.90;82.17
6020;BME280;3038;51.122;6.840;2023-03-24T01:07:56;99740.31;;;12.90;81.63
6020;BME280;3038;51.122;6.840;2023-03-24T01:10:23;99746.88;;;12.87;81.98
6020;BME280;3038;51.122;6.840;2023-03-24T01:12:52;99741.53;;;12.87;82.06
6020;BME280;3038;51.122;6.840;2023-03-24T01:15:21;99744.38;;;12.85;81.69
6020;BME280;3038;51.122;6.840;2023-03-24T01:17:49;99741.94;;;12.91;81.97
6020;BME280;3038;51.122;6.840;2023-03-24T01:20:15;99745.25;;;12.93;81.64
6020;BME280;3038;51.122;6.840;2023-03-24T01:22:41;99736.44;;;12.92;81.60
6020;BME280;3038;51.122;6.840;2023-03-24T01:25:17;99740.53;;;12.95;81.52
6020;BME280;3038;51.122;6.840;2023-03-24T01:27:45;99732.75;;;13.00;81.19
6020;BME280;3038;51.122;6.840;2023-03-24T01:30:13;99729.50;;;13.04;81.24
6020;BME280;3038;51.122;6.840;2023-03-24T01:32:39;99724.59;;;13.08;80.77
6020;BME280;3038;51.122;6.840;2023-03-24T01:35:05;99724.81;;;13.13;80.25
6020;BME280;3038;51.122;6.840;2023-03-24T01:37:30;99718.31;;;13.22;80.42
6020;BME280;3038;51.122;6.840;2023-03-24T01:39:56;99713.59;;;13.24;80.13
6020;BME280;3038;51.122;6.840;2023-03-24T01:42:24;99705.59;;;13.24;80.21
6020;BME280;3038;51.122;6.840;2023-03-24T01:44:58;99696.78;;;13.24;80.14
6020;BME280;3038;51.122;6.840;2023-03-24T01:47:24;99697.41;;;13.26;79.95
6020;BME280;3038;51.122;6.840;2023-03-24T01:49:57;99690.22;;;13.26;80.56
6020;BME280;3038;51.122;6.840;2023-03-24T01:52:29;99685.13;;;13.25;80.52
6020;BME280;3038;51.122;6.840;2023-03-24T01:55:02;99679.97;;;13.23;80.88
6020;BME280;3038;51.122;6.840;2023-03-24T01:57:35;99670.53;;;13.27;80.74
6020;BME280;3038;51.122;6.840;2023-03-24T02:00:07;99663.97;;;13.23;80.98
6020;BME280;3038;51.122;6.840;2023-03-24T02:02:40;99656.38;;;13.20;81.79
6020;BME280;3038;51.122;6.840;2023-03-24T02:05:09;99656.16;;;13.15;82.39
6020;BME280;3038;51.122;6.840;2023-03-24T02:08:02;99643.63;;;13.09;82.98
6020;BME280;3038;51.122;6.840;2023-03-24T02:10:34;99642.81;;;13.02;82.14
6020;BME280;3038;51.122;6.840;2023-03-24T02:13:00;99631.94;;;12.97;82.35
6020;BME280;3038;51.122;6.840;2023-03-24T02:15:30;99622.69;;;12.93;82.29
6020;BME280;3038;51.122;6.840;2023-03-24T02:18:13;99623.72;;;12.92;82.39
6020;BME280;3038;51.122;6.840;2023-03-24T02:38:09;99607.94;;;13.10;81.01
6020;BME280;3038;51.122;6.840;2023-03-24T02:46:41;99606.16;;;13.24;80.54
6020;BME280;3038;51.122;6.840;2023-03-24T02:54:46;99602.69;;;13.50;79.55
6020;BME280;3038;51.122;6.840;2023-03-24T02:57:33;99604.31;;;13.64;78.89
6020;BME280;3038;51.122;6.840;2023-03-24T03:00:07;99593.59;;;13.77;78.54
6020;BME280;3038;51.122;6.840;2023-03-24T03:02:41;99592.59;;;13.78;78.00
6020;BME280;3038;51.122;6.840;2023-03-24T03:05:18;99591.13;;;13.82;77.89
6020;BME280;3038;51.122;6.840;2023-03-24T03:07:49;99599.53;;;13.93;77.56
6020;BME280;3038;51.122;6.840;2023-03-24T03:10:23;99595.59;;;14.02;76.58
6020;BME280;3038;51.122;6.840;2023-03-24T03:12:52;99592.28;;;14.06;76.52
6020;BME280;3038;51.122;6.840;2023-03-24T03:15:24;99592.69;;;14.10;76.28
6020;BME280;3038;51.122;6.840;2023-03-24T03:17:57;99597.00;;;14.11;76.44
6020;BME280;3038;51.122;6.840;2023-03-24T03:20:25;99582.41;;;14.20;75.34
6020;BME280;3038;51.122;6.840;2023-03-24T03:23:09;99587.09;;;14.25;75.19
6020;BME280;3038;51.122;6.840;2023-03-24T03:25:40;99581.13;;;14.29;75.23
6020;BME280;3038;51.122;6.840;2023-03-24T03:28:13;99583.97;;;14.48;74.47
6020;BME280;3038;51.122;6.840;2023-03-24T03:31:00;99584.09;;;14.59;72.94
6020;BME280;3038;51.122;6.840;2023-03-24T03:33:45;99574.84;;;14.62;73.07
6020;BME280;3038;51.122;6.840;2023-03-24T03:36:23;99590.00;;;14.68;73.30
6020;BME280;3038;51.122;6.840;2023-03-24T03:39:09;99567.59;;;14.69;72.98
6020;BME280;3038;51.122;6.840;2023-03-24T03:41:39;99577.69;;;14.67;73.14
6020;BME280;3038;51.122;6.840;2023-03-24T03:44:04;99580.97;;;14.69;73.25
6020;BME280;3038;51.122;6.840;2023-03-24T03:46:30;99588.59;;;14.65;73.45
6020;BME280;3038;51.122;6.840;2023-03-24T03:48:56;99571.13;;;14.63;73.36
6020;BME280;3038;51.122;6.840;2023-03-24T03:51:22;99568.63;;;14.68;72.98
6020;BME280;3038;51.122;6.840;2023-03-24T03:53:51;99578.91;;;14.71;73.16
6020;BME280;3038;51.122;6.840;2023-03-24T03:56:23;99582.63;;;14.70;72.82
6020;BME280;3038;51.122;6.840;2023-03-24T03:58:52;99583.44;;;14.71;73.00
6020;BME280;3038;51.122;6.840;2023-03-24T04:01:20;99587.16;;;14.63;73.17
6020;BME280;3038;51.122;6.840;2023-03-24T04:14:57;99589.25;;;14.61;72.78
6020;BME280;3038;51.122;6.840;2023-03-24T04:17:44;99604.22;;;14.62;72.97
6020;BME280;3038;51.122;6.840;2023-03-24T04:20:19;99603.19;;;14.63;73.16
6020;BME280;3038;51.122;6.840;2023-03-24T04:23:11;99600.75;;;14.55;73.18
6020;BME280;3038;51.122;6.840;2023-03-24T04:26:01;99604.69;;;14.52;73.83
6020;BME280;3038;51.122;6.840;2023-03-24T04:28:37;99613.25;;;14.09;75.28
6020;BME280;3038;51.122;6.840;2023-03-24T04:33:42;99624.41;;;13.33;79.86
6020;BME280;3038;51.122;6.840;2023-03-24T04:36:25;99634.59;;;13.10;82.12
6020;BME280;3038;51.122;6.840;2023-03-24T04:38:53;99655.69;;;12.98;82.35
6020;BME280;3038;51.122;6.840;2023-03-24T04:41:25;99658.53;;;12.90;82.53
6020;BME280;3038;51.122;6.840;2023-03-24T04:43:52;99660.38;;;12.90;82.10
6020;BME280;3038;51.122;6.840;2023-03-24T04:46:22;99673.53;;;12.98;81.42
6020;BME280;3038;51.122;6.840;2023-03-24T04:48:48;99682.56;;;13.10;81.27
6020;BME280;3038;51.122;6.840;2023-03-24T04:51:15;99678.13;;;13.24;80.49
6020;BME280;3038;51.122;6.840;2023-03-24T04:53:41;99687.56;;;13.26;79.64
6020;BME280;3038;51.122;6.840;2023-03-24T04:56:38;99698.03;;;13.28;79.84
6020;BME280;3038;51.122;6.840;2023-03-24T04:59:05;99692.91;;;13.26;79.59
6020;BME280;3038;51.122;6.840;2023-03-24T05:01:31;99695.78;;;13.31;79.01
6020;BME280;3038;51.122;6.840;2023-03-24T05:04:01;99709.09;;;13.31;79.18
6020;BME280;3038;51.122;6.840;2023-03-24T05:06:28;99706.84;;;13.28;78.92
6020;BME280;3038;51.122;6.840;2023-03-24T05:08:55;99710.53;;;13.27;78.98
6020;BME280;3038;51.122;6.840;2023-03-24T05:11:24;99708.91;;;13.26;78.11
6020;BME280;3038;51.122;6.840;2023-03-24T05:13:49;99717.50;;;13.22;78.50
6020;BME280;3038;51.122;6.840;2023-03-24T05:16:15;99719.91;;;13.17;78.63
6020;BME280;3038;51.122;6.840;2023-03-24T05:18:41;99725.63;;;13.13;78.68
6020;BME280;3038;51.122;6.840;2023-03-24T05:21:06;99720.28;;;13.07;78.14
6020;BME280;3038;51.122;6.840;2023-03-24T05:23:31;99715.13;;;12.99;77.51
6020;BME280;3038;51.122;6.840;2023-03-24T05:25:57;99741.16;;;12.97;77.93
6020;BME280;3038;51.122;6.840;2023-03-24T05:28:23;99749.13;;;12.90;77.90
6020;BME280;3038;51.122;6.840;2023-03-24T05:30:56;99771.91;;;12.93;78.26
6020;BME280;3038;51.122;6.840;2023-03-24T05:33:23;99788.09;;;12.91;77.87
6020;BME280;3038;51.122;6.840;2023-03-24T05:35:49;99803.41;;;12.82;77.10
6020;BME280;3038;51.122;6.840;2023-03-24T05:38:14;99811.09;;;12.71;76.37
6020;BME280;3038;51.122;6.840;2023-03-24T05:40:40;99822.69;;;12.56;74.54
6020;BME280;3038;51.122;6.840;2023-03-24T05:43:05;99828.34;;;12.47;74.64
6020;BME280;3038;51.122;6.840;2023-03-24T05:45:32;99832.59;;;12.34;74.63
6020;BME280;3038;51.122;6.840;2023-03-24T05:47:58;99825.72;;;12.19;73.92
6020;BME280;3038;51.122;6.840;2023-03-24T05:50:23;99839.72;;;12.06;73.54
6020;BME280;3038;51.122;6.840;2023-03-24T05:52:49;99840.03;;;11.96;74.07
6020;BME280;3038;51.122;6.840;2023-03-24T05:55:15;99844.66;;;11.88;73.96
6020;BME280;3038;51.122;6.840;2023-03-24T05:57:41;99852.47;;;11.74;73.92
6020;BME280;3038;51.122;6.840;2023-03-24T06:00:08;99849.47;;;11.63;74.05
6020;BME280;3038;51.122;6.840;2023-03-24T06:02:39;99862.44;;;11.51;73.97
6020;BME280;3038;51.122;6.840;2023-03-24T06:05:05;99870.78;;;11.48;73.84
6020;BME280;3038;51.122;6.840;2023-03-24T06:07:32;99863.56;;;11.42;73.57
6020;BME280;3038;51.122;6.840;2023-03-24T06:09:58;99878.97;;;11.31;73.48
6020;BME280;3038;51.122;6.840;2023-03-24T06:12:27;99883.72;;;11.21;74.01
6020;BME280;3038;51.122;6.840;2023-03-24T06:14:52;99885.75;;;11.19;74.10
6020;BME280;3038;51.122;6.840;2023-03-24T06:17:18;99891.25;;;11.18;74.17
6020;BME280;3038;51.122;6.840;2023-03-24T06:19:45;99899.50;;;11.08;73.87
6020;BME280;3038;51.122;6.840;2023-03-24T06:22:15;99908.94;;;11.11;74.40
6020;BME280;3038;51.122;6.840;2023-03-24T06:24:40;99906.28;;;11.11;74.37
6020;BME280;3038;51.122;6.840;2023-03-24T06:27:12;99908.94;;;11.11;74.39
6020;BME280;3038;51.122;6.840;2023-03-24T06:29:39;99911.78;;;11.09;74.38
6020;BME280;3038;51.122;6.840;2023-03-24T06:32:06;99902.88;;;11.02;74.73
6020;BME280;3038;51.122;6.840;2023-03-24T06:34:33;99904.28;;;10.98;75.22
6020;BME280;3038;51.122;6.840;2023-03-24T06:36:58;99909.41;;;10.99;75.04
6020;BME280;3038;51.122;6.840;2023-03-24T06:39:23;99920.22;;;10.98;75.00
6020;BME280;3038;51.122;6.840;2023-03-24T06:41:49;99915.19;;;11.03;75.27
6020;BME280;3038;51.122;6.840;2023-03-24T06:44:14;99917.44;;;11.06;74.81
6020;BME280;3038;51.122;6.840;2023-03-24T06:46:40;99923.84;;;11.12;74.82
6020;BME280;3038;51.122;6.840;2023-03-24T06:49:06;99933.31;;;11.14;75.42
6020;BME280;3038;51.122;6.840;2023-03-24T06:51:31;99925.81;;;11.18;74.77
6020;BME280;3038;51.122;6.840;2023-03-24T06:53:57;99932.56;;;11.20;75.32
6020;BME280;3038;51.122;6.840;2023-03-24T06:56:22;99942.19;;;11.21;75.39
6020;BME280;3038;51.122;6.840;2023-03-24T06:58:47;99962.25;;;11.24;75.22
6020;BME280;3038;51.122;6.840;2023-03-24T07:01:14;99976.19;;;11.26;75.67
6020;BME280;3038;51.122;6.840;2023-03-24T07:03:40;99969.59;;;11.22;75.79
6020;BME280;3038;51.122;6.840;2023-03-24T07:06:06;99972.06;;;11.23;76.26
6020;BME280;3038;51.122;6.840;2023-03-24T07:08:32;99960.97;;;11.20;75.29
6020;BME280;3038;51.122;6.840;2023-03-24T07:10:58;99953.81;;;11.20;75.82
6020;BME280;3038;51.122;6.840;2023-03-24T07:13:24;99952.38;;;11.18;75.39
6020;BME280;3038;51.122;6.840;2023-03-24T07:15:49;99953.53;;;11.15;75.19
6020;BME280;3038;51.122;6.840;2023-03-24T07:18:17;99955.19;;;11.16;74.52
6020;BME280;3038;51.122;6.840;2023-03-24T07:20:45;99951.56;;;11.17;74.81
6020;BME280;3038;51.122;6.840;2023-03-24T07:23:11;99955.09;;;11.10;74.95
6020;BME280;3038;51.122;6.840;2023-03-24T07:25:39;99961.97;;;11.04;75.10
6020;BME280;3038;51.122;6.840;2023-03-24T07:28:05;99968.03;;;10.98;75.00
6020;BME280;3038;51.122;6.840;2023-03-24T07:30:31;99973.97;;;11.00;75.08
6020;BME280;3038;51.122;6.840;2023-03-24T07:32:58;99974.50;;;10.95;74.46
6020;BME280;3038;51.122;6.840;2023-03-24T07:35:26;99968.38;;;10.95;73.50
6020;BME280;3038;51.122;6.840;2023-03-24T07:37:51;99971.66;;;10.97;74.07
6020;BME280;3038;51.122;6.840;2023-03-24T07:40:17;99974.16;;;10.98;73.73
6020;BME280;3038;51.122;6.840;2023-03-24T07:42:42;99980.00;;;10.94;73.84
6020;BME280;3038;51.122;6.840;2023-03-24T07:45:09;99985.13;;;10.95;73.46
6020;BME280;3038;51.122;6.840;2023-03-24T07:47:36;99987.97;;;10.94;73.69
6020;BME280;3038;51.122;6.840;2023-03-24T07:50:06;99993.28;;;10.94;73.93
6020;BME280;3038;51.122;6.840;2023-03-24T07:52:37;99997.88;;;11.00;73.97
6020;BME280;3038;51.122;6.840;2023-03-24T07:55:05;99994.59;;;11.13;73.29
6020;BME280;3038;51.122;6.840;2023-03-24T07:57:32;100001.94;;;11.25;73.62
6020;BME280;3038;51.122;6.840;2023-03-24T08:00:04;99999.66;;;11.37;73.53
6020;BME280;3038;51.122;6.840;2023-03-24T08:02:52;99995.78;;;11.40;73.03
6020;BME280;3038;51.122;6.840;2023-03-24T08:05:19;99993.53;;;11.51;72.87
6020;BME280;3038;51.122;6.840;2023-03-24T08:07:46;100008.94;;;11.56;72.98
6020;BME280;3038;51.122;6.840;2023-03-24T08:10:19;100008.47;;;11.52;73.00
6020;BME280;3038;51.122;6.840;2023-03-24T08:12:46;100010.31;;;11.52;72.82
6020;BME280;3038;51.122;6.840;2023-03-24T08:15:12;100017.63;;;11.50;72.89
6020;BME280;3038;51.122;6.840;2023-03-24T08:17:39;100022.56;;;11.53;73.16
6020;BME280;3038;51.122;6.840;2023-03-24T08:20:07;100012.22;;;11.58;72.59
6020;BME280;3038;51.122;6.840;2023-03-24T08:22:40;100002.78;;;11.85;72.48
6020;BME280;3038;51.122;6.840;2023-03-24T08:25:10;100006.47;;;12.20;71.15
6020;BME280;3038;51.122;6.840;2023-03-24T08:27:38;99996.41;;;12.37;70.62
6020;BME280;3038;51.122;6.840;2023-03-24T08:30:06;100001.28;;;12.76;69.63
6020;BME280;3038;51.122;6.840;2023-03-24T08:32:32;99997.22;;;13.02;69.92
6020;BME280;3038;51.122;6.840;2023-03-24T08:34:58;99990.97;;;13.16;68.33
6020;BME280;3038;51.122;6.840;2023-03-24T08:37:23;99999.06;;;12.80;68.40
6020;BME280;3038;51.122;6.840;2023-03-24T08:39:48;99994.22;;;12.62;68.80
6020;BME280;3038;51.122;6.840;2023-03-24T08:42:14;100005.03;;;12.82;68.08
6020;BME280;3038;51.122;6.840;2023-03-24T08:44:39;100011.69;;;12.93;68.40
6020;BME280;3038;51.122;6.840;2023-03-24T08:47:05;100016.56;;;13.10;68.17
6020;BME280;3038;51.122;6.840;2023-03-24T08:49:31;100015.69;;;13.10;67.01
6020;BME280;3038;51.122;6.840;2023-03-24T08:51:56;100014.22;;;13.01;67.52
6020;BME280;3038;51.122;6.840;2023-03-24T08:54:21;100012.28;;;13.16;67.31
6020;BME280;3038;51.122;6.840;2023-03-24T08:56:49;100021.00;;;13.25;67.68
6020;BME280;3038;51.122;6.840;2023-03-24T08:59:17;100024.72;;;13.09;66.63
6020;BME280;3038;51.122;6.840;2023-03-24T09:01:42;100024.09;;;13.07;67.12
6020;BME280;3038;51.122;6.840;2023-03-24T09:04:08;100029.63;;;13.05;65.86
6020;BME280;3038;51.122;6.840;2023-03-24T09:06:33;100025.25;;;12.98;65.52
6020;BME280;3038;51.122;6.840;2023-03-24T09:08:59;100028.16;;;13.03;66.21
6020;BME280;3038;51.122;6.840;2023-03-24T09:11:24;100035.56;;;13.07;65.61
6020;BME280;3038;51.122;6.840;2023-03-24T09:13:50;100040.19;;;13.20;65.65
6020;BME280;3038;51.122;6.840;2023-03-24T09:16:15;100028.28;;;13.16;65.99
6020;BME280;3038;51.122;6.840;2023-03-24T09:18:42;100036.41;;;13.08;63.90
6020;BME280;3038;51.122;6.840;2023-03-24T09:21:10;100036.03;;;13.11;64.40
6020;BME280;3038;51.122;6.840;2023-03-24T09:23:36;100041.84;;;13.21;64.80
6020;BME280;3038;51.122;6.840;2023-03-24T09:26:02;100030.69;;;13.11;64.81
6020;BME280;3038;51.122;6.840;2023-03-24T09:28:28;100035.72;;;12.99;65.48
6020;BME280;3038;51.122;6.840;2023-03-24T09:30:59;100039.69;;;13.10;64.42
6020;BME280;3038;51.122;6.840;2023-03-24T09:33:25;100044.59;;;13.06;64.71
6020;BME280;3038;51.122;6.840;2023-03-24T09:35:55;100036.44;;;13.36;63.53
6020;BME280;3038;51.122;6.840;2023-03-24T09:38:21;100037.25;;;13.71;63.42
6020;BME280;3038;51.122;6.840;2023-03-24T09:40:50;100043.63;;;13.70;62.26
6020;BME280;3038;51.122;6.840;2023-03-24T09:43:40;100045.28;;;14.19;61.88
6020;BME280;3038;51.122;6.840;2023-03-24T09:48:54;100059.00;;;14.57;60.33
6020;BME280;3038;51.122;6.840;2023-03-24T09:56:37;100070.16;;;13.78;61.29
6020;BME280;3038;51.122;6.840;2023-03-24T09:59:18;100074.22;;;13.74;61.39
6020;BME280;3038;51.122;6.840;2023-03-24T10:01:44;100082.56;;;13.99;62.36
6020;BME280;3038;51.122;6.840;2023-03-24T10:04:21;100063.94;;;14.60;60.32
6020;BME280;3038;51.122;6.840;2023-03-24T10:06:53;100081.56;;;14.48;60.37
6020;BME280;3038;51.122;6.840;2023-03-24T10:09:28;100082.91;;;14.31;60.20
6020;BME280;3038;51.122;6.840;2023-03-24T10:17:49;100087.84;;;14.34;58.00
6020;BME280;3038;51.122;6.840;2023-03-24T10:20:57;100083.50;;;14.26;59.60
6020;BME280;3038;51.122;6.840;2023-03-24T10:23:33;100077.47;;;14.52;58.55
6020;BME280;3038;51.122;6.840;2023-03-24T10:29:26;100088.59;;;14.56;58.85
6020;BME280;3038;51.122;6.840;2023-03-24T10:31:59;100087.84;;;15.02;57.05
6020;BME280;3038;51.122;6.840;2023-03-24T10:34:30;100090.28;;;14.70;58.01
6020;BME280;3038;51.122;6.840;2023-03-24T10:36:59;100094.97;;;14.68;57.97
6020;BME280;3038;51.122;6.840;2023-03-24T10:39:28;100089.56;;;14.07;59.40
6020;BME280;3038;51.122;6.840;2023-03-24T10:41:53;100093.13;;;14.62;58.53
6020;BME280;3038;51.122;6.840;2023-03-24T10:44:20;100091.44;;;14.48;58.42
6020;BME280;3038;51.122;6.840;2023-03-24T10:46:48;100090.53;;;15.41;55.34
6020;BME280;3038;51.122;6.840;2023-03-24T10:49:18;100085.41;;;15.66;55.56
6020;BME280;3038;51.122;6.840;2023-03-24T10:51:52;100095.00;;;18.09;50.21
6020;BME280;3038;51.122;6.840;2023-03-24T10:54:25;100088.22;;;20.09;44.95
6020;BME280;3038;51.122;6.840;2023-03-24T10:57:03;100079.41;;;18.96;45.41
6020;BME280;3038;51.122;6.840;2023-03-24T10:59:30;100087.19;;;17.14;49.96
6020;BME280;3038;51.122;6.840;2023-03-24T11:04:52;100080.19;;;16.81;50.93
6020;BME280;3038;51.122;6.840;2023-03-24T11:07:34;100085.09;;;15.94;52.37
6020;BME280;3038;51.122;6.840;2023-03-24T11:12:38;100092.38;;;15.14;54.42
6020;BME280;3038;51.122;6.840;2023-03-24T11:17:46;100081.28;;;15.11;56.16
6020;BME280;3038;51.122;6.840;2023-03-24T11:20:20;100086.38;;;15.92;53.83
6020;BME280;3038;51.122;6.840;2023-03-24T11:23:08;100085.44;;;16.63;51.48
6020;BME280;3038;51.122;6.840;2023-03-24T11:25:38;100094.38;;;15.99;54.06
6020;BME280;3038;51.122;6.840;2023-03-24T11:28:13;100092.56;;;15.46;54.32
6020;BME280;3038;51.122;6.840;2023-03-24T11:31:04;100094.00;;;15.02;55.98
6020;BME280;3038;51.122;6.840;2023-03-24T11:33:33;100087.25;;;15.39;53.76
6020;BME280;3038;51.122;6.840;2023-03-24T11:36:05;100095.25;;;19.39;46.36
6020;BME280;3038;51.122;6.840;2023-03-24T11:38:33;100105.75;;;18.75;47.80
6020;BME280;3038;51.122;6.840;2023-03-24T11:41:01;100097.16;;;21.79;42.77
6020;BME280;3038;51.122;6.840;2023-03-24T11:43:29;100102.44;;;21.35;40.39
6020;BME280;3038;51.122;6.840;2023-03-24T11:46:07;100104.84;;;18.15;46.64
6020;BME280;3038;51.122;6.840;2023-03-24T11:48:39;100097.63;;;19.71;44.21
6020;BME280;3038;51.122;6.840;2023-03-24T11:51:27;100095.03;;;20.97;40.23
6020;BME280;3038;51.122;6.840;2023-03-24T11:53:58;100092.72;;;20.32;41.22
6020;BME280;3038;51.122;6.840;2023-03-24T11:56:39;100091.25;;;17.91;46.31
6020;BME280;3038;51.122;6.840;2023-03-24T11:59:41;100095.63;;;16.48;49.86
6020;BME280;3038;51.122;6.840;2023-03-24T12:02:18;100091.50;;;15.93;51.59
6020;BME280;3038;51.122;6.840;2023-03-24T12:08:06;100077.13;;;15.75;52.02
6020;BME280;3038;51.122;6.840;2023-03-24T12:10:43;100076.47;;;15.92;52.36
6020;BME280;3038;51.122;6.840;2023-03-24T12:13:22;100073.38;;;15.89;52.06
6020;BME280;3038;51.122;6.840;2023-03-24T12:16:33;100076.63;;;16.11;51.50
6020;BME280;3038;51.122;6.840;2023-03-24T12:19:46;100070.19;;;18.73;45.27
6020;BME280;3038;51.122;6.840;2023-03-24T12:22:18;100072.09;;;20.66;41.08
6020;BME280;3038;51.122;6.840;2023-03-24T12:30:23;100058.97;;;19.30;43.16
6020;BME280;3038;51.122;6.840;2023-03-24T12:52:56;100054.09;;;18.07;43.81
6020;BME280;3038;51.122;6.840;2023-03-24T12:55:38;100034.84;;;17.05;46.40
6020;BME280;3038;51.122;6.840;2023-03-24T12:58:22;100048.06;;;16.68;47.99
6020;BME280;3038;51.122;6.840;2023-03-24T13:01:12;100039.69;;;16.58;46.78
6020;BME280;3038;51.122;6.840;2023-03-24T13:03:43;100041.66;;;16.37;47.90
6020;BME280;3038;51.122;6.840;2023-03-24T13:06:25;100044.41;;;16.24;48.51
6020;BME280;3038;51.122;6.840;2023-03-24T13:09:03;100043.09;;;16.02;48.92
6020;BME280;3038;51.122;6.840;2023-03-24T13:11:42;100036.56;;;15.78;49.32
6020;BME280;3038;51.122;6.840;2023-03-24T13:14:17;100039.91;;;15.53;49.76
6020;BME280;3038;51.122;6.840;2023-03-24T13:16:46;100043.41;;;15.40;49.93
6020;BME280;3038;51.122;6.840;2023-03-24T13:19:21;100042.16;;;15.50;49.74
6020;BME280;3038;51.122;6.840;2023-03-24T13:21:49;100054.25;;;15.92;49.74
6020;BME280;3038;51.122;6.840;2023-03-24T13:24:17;100047.84;;;15.93;49.13
6020;BME280;3038;51.122;6.840;2023-03-24T13:26:51;100040.56;;;19.27;42.46
6020;BME280;3038;51.122;6.840;2023-03-24T13:34:59;100042.66;;;16.50;47.32
6020;BME280;3038;51.122;6.840;2023-03-24T13:37:34;100022.56;;;19.27;41.96
6020;BME280;3038;51.122;6.840;2023-03-24T13:40:09;100030.44;;;22.01;37.59
6020;BME280;3038;51.122;6.840;2023-03-24T13:42:46;100021.50;;;22.77;35.39
6020;BME280;3038;51.122;6.840;2023-03-24T13:45:26;100010.28;;;22.36;35.43
6020;BME280;3038;51.122;6.840;2023-03-24T13:50:25;100023.66;;;20.02;39.39
6020;BME280;3038;51.122;6.840;2023-03-24T13:52:51;100007.31;;;18.44;43.00
6020;BME280;3038;51.122;6.840;2023-03-24T13:55:21;100019.75;;;17.54;45.28
6020;BME280;3038;51.122;6.840;2023-03-24T13:57:59;100021.28;;;16.75;45.92
6020;BME280;3038;51.122;6.840;2023-03-24T14:00:28;100031.13;;;16.42;47.42
6020;BME280;3038;51.122;6.840;2023-03-24T14:08:59;100021.59;;;19.34;42.46
6020;BME280;3038;51.122;6.840;2023-03-24T14:19:26;100018.69;;;17.55;45.65
6020;BME280;3038;51.122;6.840;2023-03-24T14:22:29;99999.03;;;17.42;45.26
6020;BME280;3038;51.122;6.840;2023-03-24T14:25:02;100012.19;;;17.01;47.03
6020;BME280;3038;51.122;6.840;2023-03-24T14:30:10;100022.72;;;17.27;46.87
6020;BME280;3038;51.122;6.840;2023-03-24T14:32:53;100018.28;;;17.14;46.75
6020;BME280;3038;51.122;6.840;2023-03-24T14:35:44;100035.19;;;17.15;47.69
6020;BME280;3038;51.122;6.840;2023-03-24T14:40:41;100016.53;;;17.45;46.52
6020;BME280;3038;51.122;6.840;2023-03-24T14:49:22;100016.19;;;18.15;45.26
6020;BME280;3038;51.122;6.840;2023-03-24T14:51:53;100010.59;;;18.77;43.42
6020;BME280;3038;51.122;6.840;2023-03-24T14:54:34;100012.69;;;18.44;43.67
6020;BME280;3038;51.122;6.840;2023-03-24T14:57:02;100002.69;;;17.48;46.03
6020;BME280;3038;51.122;6.840;2023-03-24T14:59:46;100008.94;;;16.99;46.86
6020;BME280;3038;51.122;6.840;2023-03-24T15:07:38;100003.34;;;17.00;47.92
6020;BME280;3038;51.122;6.840;2023-03-24T15:10:04;100017.13;;;17.04;48.95
6020;BME280;3038;51.122;6.840;2023-03-24T15:12:30;100013.25;;;16.75;48.11
6020;BME280;3038;51.122;6.840;2023-03-24T15:14:55;100015.13;;;16.29;48.61
6020;BME280;3038;51.122;6.840;2023-03-24T15:17:23;100009.63;;;16.17;48.58
6020;BME280;3038;51.122;6.840;2023-03-24T15:19:53;100013.06;;;16.31;49.53
6020;BME280;3038;51.122;6.840;2023-03-24T15:22:19;99998.63;;;16.32;49.28
6020;BME280;3038;51.122;6.840;2023-03-24T15:24:50;99997.50;;;16.15;49.27
6020;BME280;3038;51.122;6.840;2023-03-24T15:27:18;100000.91;;;15.84;49.19
6020;BME280;3038;51.122;6.840;2023-03-24T15:29:44;99989.88;;;15.67;49.93
6020;BME280;3038;51.122;6.840;2023-03-24T15:32:21;99992.19;;;15.43;50.09
6020;BME280;3038;51.122;6.840;2023-03-24T15:37:35;99981.72;;;15.15;50.15
6020;BME280;3038;51.122;6.840;2023-03-24T15:40:04;99992.44;;;15.09;51.26
6020;BME280;3038;51.122;6.840;2023-03-24T15:42:31;99991.00;;;15.00;51.22
6020;BME280;3038;51.122;6.840;2023-03-24T15:45:07;100003.81;;;14.23;57.08
6020;BME280;3038;51.122;6.840;2023-03-24T15:47:37;100026.03;;;12.49;65.30
6020;BME280;3038;51.122;6.840;2023-03-24T15:50:39;100054.22;;;11.77;70.69
6020;BME280;3038;51.122;6.840;2023-03-24T15:53:22;100034.63;;;11.26;74.96
6020;BME280;3038;51.122;6.840;2023-03-24T15:56:04;100032.09;;;10.95;75.75